Etusivu
METAR-TAF:

METAR-TAF

Lentoasemat :

Trent Lott International Airport

Pascagoula, Mississippi, Yhdysvallat

Leveyspiiri: 30-27-49N, Pituuspiiri: 088-31-55W, korkeus merenpinnasta: 5 m

Tämänhetkinen sää

Tämä raportti tehtiin 21 minuuttia sitten, kello 02.13 UTC
Tuuli 9 kn pohjoisesta/koillisesta
Lämpötila 17°C
Kosteus 72%
Ilmanpaine 1009 hPa
Näkyvyys: 16.1 km
Hajonneita pilviä 2200 ft:n korkeudessa
Pilvistä 3700 ft:n korkeudessa

METAR: KPQL 190213Z AUTO 03009KT 10SM BKN022 OVC037 17/12 A2979 RMK AO2 T01670122

Aika: 21:34 (02:34 UTC)


TAF: puuttuu

Säähavainnot ja -ennusteet yli 4000 lentoasemalta (METAR- ja TAF-raportit).

Käytössä olevat sääasemat on merkitty karttaan keltaisilla ja punaisilla pisteillä.

Aseta hiiri pisteen päälle nähdäksesi sääaseman nimen.

Klikkaa sitten nähdäksesi säähavainnot ja -ennusteet.

Kartan vaihtaminen: klikkaa mustalla rastilla varustettuja vihreitä pisteitä, niin voit zoomata sisään; viivalla varustettua vihreää pistettä, niin voit zoomata ulos tai vihreitä nuolia, niin pääset viereisille kartoille.


METAR-TAF: